Terminal Aerodrome Forecast
Issued by NWS

Home | Current Version | Previous Version | Text Only | Print | Product List | Glossary On
Versions: 1 2 3 4 5 6 7 8 9 10 11 12 13 14 15 16 17 18 19
000
FTUS45 KVEF 300500
TAFHND
TAF
KHND 300538Z 3006/3106 17005KT P6SM SCT080 OVC090
     FM300800 VRB05KT P6SM VCSH SCT060 OVC080
     FM301300 VRB06KT 6SM -RA BR FEW025 SCT030 OVC050
      TEMPO 3015/3019 3SM RA BR FEW010 BKN025
     FM301900 01006KT 3SM -RA BR FEW010 OVC030
     FM310300 VRB05KT P6SM VCSH FEW010 OVC030=

USA.gov is the U.S. government's official web portal to all federal, state and local government web resources and services.